Time;durP1;ratioP1;P1;durP2;ratioP2;P2;SDS_P1;SDS_P2;PMS_P1;PMS_P2;Temp;Humidity;BMP_temperature;BMP_pressure;BME280_temperature;BME280_humidity;BME280_pressure;Samples;Min_cycle;Max_cycle;Signal;HPM_P1;HPM_P2
2021/12/29 05:01:24;;;;;;;0.87;0.63;;;9.80;99.90;;;;;;5514260;23;20531;-70
2021/12/29 05:03:50;;;;;;;0.80;0.80;;;9.80;99.90;;;;;;4976374;28;20451;-70
2021/12/29 05:09:01;;;;;;;0.93;0.43;;;9.90;99.90;;;;;;4977350;28;20418;-70
2021/12/29 05:11:28;;;;;;;1.23;0.63;;;9.90;99.90;;;;;;4996307;28;20484;-70
2021/12/29 05:13:56;;;;;;;0.37;0.37;;;9.90;99.90;;;;;;4982097;28;20857;-70
2021/12/29 05:16:27;;;;;;;0.60;0.60;;;10.00;99.90;;;;;;4976128;28;20461;-71
2021/12/29 05:18:55;;;;;;;0.83;0.43;;;10.00;99.90;;;;;;4976088;28;20453;-70
2021/12/29 05:21:25;;;;;;;3.70;0.90;;;10.00;99.90;;;;;;4975688;28;20490;-69
2021/12/29 05:23:52;;;;;;;0.90;0.60;;;9.90;99.90;;;;;;4977851;28;20467;-69
2021/12/29 05:26:18;;;;;;;3.20;0.53;;;9.90;99.90;;;;;;4977043;28;20452;-70
2021/12/29 05:28:45;;;;;;;0.50;0.47;;;9.90;99.90;;;;;;4975862;28;20443;-69
2021/12/29 05:31:12;;;;;;;1.97;0.60;;;10.00;99.90;;;;;;4975510;28;20556;-68
2021/12/29 05:33:40;;;;;;;0.40;0.40;;;9.90;99.90;;;;;;4975721;28;20455;-69
2021/12/29 05:36:07;;;;;;;2.53;0.77;;;9.80;99.90;;;;;;4975855;28;20466;-69
2021/12/29 05:38:34;;;;;;;0.97;0.53;;;9.80;99.90;;;;;;4975615;28;20456;-69
2021/12/29 05:41:01;;;;;;;1.27;0.97;;;9.70;99.90;;;;;;4975146;28;20487;-70
2021/12/29 05:43:27;;;;;;;0.93;0.77;;;9.70;99.90;;;;;;4975290;28;20463;-69
2021/12/29 05:45:54;;;;;;;2.93;0.63;;;9.60;99.90;;;;;;4975966;28;20947;-69
2021/12/29 05:48:21;;;;;;;3.43;1.30;;;9.50;99.90;;;;;;4975662;28;20459;-70
2021/12/29 05:50:49;;;;;;;2.00;0.70;;;9.60;99.90;;;;;;4975630;28;20480;-69
2021/12/29 05:53:16;;;;;;;4.17;0.80;;;9.50;99.90;;;;;;4975406;28;20465;-70
2021/12/29 05:55:43;;;;;;;1.67;0.73;;;9.50;99.90;;;;;;4975856;28;20459;-69
2021/12/29 05:58:10;;;;;;;6.37;1.17;;;9.50;99.90;;;;;;4975665;28;20451;-69
2021/12/29 06:00:39;;;;;;;1.50;0.60;;;9.50;99.90;;;;;;4975436;28;20522;-69
2021/12/29 06:03:07;;;;;;;2.63;0.67;;;9.50;99.90;;;;;;4975725;28;20529;-70
2021/12/29 06:05:34;;;;;;;0.90;0.60;;;9.50;99.90;;;;;;4975500;28;20947;-69
2021/12/29 06:08:02;;;;;;;2.20;0.83;;;9.50;99.90;;;;;;4975845;28;20459;-70
2021/12/29 06:10:29;;;;;;;1.33;0.80;;;9.50;99.90;;;;;;4975430;28;20958;-69
2021/12/29 06:12:56;;;;;;;1.70;0.73;;;9.50;99.90;;;;;;4975862;28;20464;-69
2021/12/29 06:15:23;;;;;;;0.63;0.63;;;9.50;99.90;;;;;;4975661;28;20455;-70
2021/12/29 06:17:50;;;;;;;1.70;0.80;;;9.60;99.90;;;;;;4975579;28;20458;-69
2021/12/29 06:20:17;;;;;;;2.40;0.60;;;9.60;99.90;;;;;;4976419;28;20468;-70
2021/12/29 06:22:44;;;;;;;1.47;0.80;;;9.60;99.90;;;;;;4976041;28;20486;-69
2021/12/29 06:25:16;;;;;;;1.00;0.90;;;9.60;99.90;;;;;;4975532;28;20453;-69
2021/12/29 06:27:43;;;;;;;2.77;1.03;;;9.60;99.90;;;;;;4975527;28;20452;-69
2021/12/29 06:30:12;;;;;;;1.27;0.80;;;9.50;99.90;;;;;;4975103;28;20443;-69
2021/12/29 06:32:40;;;;;;;1.70;0.83;;;9.60;99.90;;;;;;4975304;28;20463;-70
2021/12/29 06:35:08;;;;;;;1.70;0.97;;;9.60;99.90;;;;;;4974746;28;20459;-70
2021/12/29 06:37:35;;;;;;;1.23;0.90;;;9.60;99.90;;;;;;4975122;28;20539;-70
2021/12/29 06:40:02;;;;;;;2.30;0.70;;;9.60;99.90;;;;;;4975443;28;20458;-73
2021/12/29 06:42:30;;;;;;;1.70;0.80;;;9.50;99.90;;;;;;4974939;28;20982;-70
2021/12/29 06:44:57;;;;;;;3.70;1.20;;;9.40;99.90;;;;;;4975302;28;20455;-70
2021/12/29 06:47:24;;;;;;;1.50;0.90;;;9.40;99.90;;;;;;4975238;28;20455;-71
2021/12/29 06:49:51;;;;;;;1.23;0.80;;;9.30;99.90;;;;;;4975362;28;20461;-71
2021/12/29 06:52:18;;;;;;;2.93;1.03;;;9.40;99.90;;;;;;4975533;28;20479;-70
2021/12/29 06:54:46;;;;;;;2.63;0.73;;;9.40;99.90;;;;;;4977865;28;20466;-70
2021/12/29 06:57:13;;;;;;;3.73;1.17;;;9.30;99.90;;;;;;4976291;28;20483;-70
2021/12/29 06:59:42;;;;;;;1.83;0.90;;;9.20;99.90;;;;;;4975875;28;20456;-70
2021/12/29 07:02:10;;;;;;;1.50;0.93;;;9.20;99.90;;;;;;4975296;28;20902;-70
2021/12/29 07:04:37;;;;;;;4.17;1.00;;;9.20;99.90;;;;;;4975340;28;20988;-70
2021/12/29 07:07:04;;;;;;;1.53;0.90;;;9.10;99.90;;;;;;4978924;28;20458;-70
2021/12/29 07:09:31;;;;;;;3.07;1.17;;;9.20;99.90;;;;;;4978572;28;20951;-70
2021/12/29 07:11:58;;;;;;;2.50;0.87;;;9.10;99.90;;;;;;4979285;28;20486;-70
2021/12/29 07:14:24;;;;;;;5.07;1.67;;;9.10;99.90;;;;;;4979160;28;20471;-70
2021/12/29 07:16:53;;;;;;;1.50;1.10;;;9.10;99.90;;;;;;4978731;28;20465;-70
2021/12/29 07:19:21;;;;;;;2.73;1.30;;;9.20;99.90;;;;;;4978735;28;20962;-71
2021/12/29 07:21:49;;;;;;;2.70;1.43;;;9.20;99.90;;;;;;4978103;28;20475;-70
2021/12/29 07:24:16;;;;;;;1.33;1.20;;;9.20;99.90;;;;;;4978602;28;20863;-70
2021/12/29 07:26:44;;;;;;;2.57;1.30;;;9.20;99.90;;;;;;4978162;28;20965;-70
2021/12/29 07:29:11;;;;;;;1.63;1.00;;;9.20;99.90;;;;;;4978169;28;20465;-69
2021/12/29 07:31:37;;;;;;;3.73;1.60;;;9.20;99.90;;;;;;4977787;28;20475;-71
2021/12/29 07:34:07;;;;;;;1.50;1.40;;;9.20;99.90;;;;;;4978468;28;20436;-69
2021/12/29 07:36:34;;;;;;;3.67;1.03;;;9.30;99.90;;;;;;4978468;28;20547;-69
2021/12/29 07:39:00;;;;;;;2.77;1.27;;;9.30;99.90;;;;;;4978227;28;20456;-69
2021/12/29 07:41:27;;;;;;;3.90;1.77;;;9.30;99.90;;;;;;4977522;28;20490;-69
2021/12/29 07:43:55;;;;;;;2.67;1.50;;;9.30;99.90;;;;;;4978248;28;20459;-69
2021/12/29 07:46:22;;;;;;;3.53;1.80;;;9.40;99.90;;;;;;4990493;28;20950;-70
2021/12/29 07:48:49;;;;;;;5.50;1.77;;;9.40;99.90;;;;;;4990846;28;20817;-69
2021/12/29 07:51:17;;;;;;;5.90;1.73;;;9.40;99.90;;;;;;4978286;28;20831;-69
2021/12/29 07:53:44;;;;;;;1.63;1.17;;;9.50;99.90;;;;;;4977886;28;20459;-70
2021/12/29 07:56:12;;;;;;;2.00;1.10;;;9.50;99.90;;;;;;4977616;28;20439;-70
2021/12/29 07:58:39;;;;;;;2.50;1.77;;;9.50;99.90;;;;;;4977621;28;20815;-70
2021/12/29 08:01:06;;;;;;;1.90;0.80;;;9.50;99.90;;;;;;4977231;28;20520;-70
2021/12/29 08:03:33;;;;;;;1.17;0.83;;;9.50;99.90;;;;;;4977662;28;20467;-70
2021/12/29 08:06:00;;;;;;;3.60;1.10;;;9.60;99.90;;;;;;4977742;28;20456;-69
2021/12/29 08:08:28;;;;;;;1.33;1.20;;;9.60;99.90;;;;;;4977594;28;20451;-70
2021/12/29 08:10:55;;;;;;;1.77;1.20;;;9.60;99.90;;;;;;4977443;28;20482;-69
2021/12/29 08:13:22;;;;;;;2.17;1.00;;;9.60;99.90;;;;;;4977745;28;20458;-67
2021/12/29 08:15:49;;;;;;;3.47;1.30;;;9.60;99.90;;;;;;4977629;28;20463;-68
2021/12/29 08:18:16;;;;;;;1.83;1.07;;;9.70;99.90;;;;;;4977620;28;20465;-68
2021/12/29 08:20:43;;;;;;;1.93;0.90;;;9.80;99.90;;;;;;4977385;28;20488;-67
2021/12/29 08:23:11;;;;;;;2.20;1.20;;;9.90;99.90;;;;;;4976909;28;20467;-68
2021/12/29 08:25:40;;;;;;;4.03;1.30;;;9.90;99.90;;;;;;4977796;28;20464;-68
2021/12/29 08:28:07;;;;;;;1.20;0.93;;;10.00;99.90;;;;;;4979666;28;20492;-68
2021/12/29 08:30:33;;;;;;;1.60;1.00;;;10.10;99.90;;;;;;4977148;28;20505;-69
2021/12/29 08:33:00;;;;;;;3.57;1.60;;;10.10;99.90;;;;;;4977104;28;20562;-70
2021/12/29 08:35:28;;;;;;;1.40;0.90;;;10.10;99.90;;;;;;4977021;28;20461;-69
2021/12/29 08:37:55;;;;;;;1.93;1.20;;;10.20;99.90;;;;;;4976834;28;20464;-70
2021/12/29 08:40:22;;;;;;;2.03;0.63;;;10.20;99.90;;;;;;4977001;28;20567;-69
2021/12/29 08:42:50;;;;;;;1.27;0.70;;;10.30;99.90;;;;;;4976809;28;20845;-70
2021/12/29 08:45:21;;;;;;;3.00;1.50;;;10.30;99.90;;;;;;4987466;28;20458;-69
2021/12/29 08:47:47;;;;;;;0.97;0.90;;;10.40;99.90;;;;;;4995583;28;20439;-70
2021/12/29 08:50:17;;;;;;;0.97;0.90;;;10.40;99.90;;;;;;4978437;28;20542;-68
2021/12/29 08:52:44;;;;;;;6.47;1.00;;;10.40;99.90;;;;;;4977007;28;20462;-70
2021/12/29 08:55:12;;;;;;;2.00;1.07;;;10.40;99.90;;;;;;4976521;28;20489;-68
2021/12/29 08:57:39;;;;;;;4.93;0.97;;;10.30;99.90;;;;;;4976734;28;20822;-68
2021/12/29 09:00:10;;;;;;;2.43;0.90;;;10.30;99.90;;;;;;4976511;28;20977;-68
2021/12/29 09:02:37;;;;;;;1.07;0.90;;;10.30;99.90;;;;;;4976332;28;20509;-69
2021/12/29 09:05:04;;;;;;;3.23;0.60;;;10.30;99.90;;;;;;4976624;28;20464;-69
2021/12/29 09:07:31;;;;;;;2.73;0.90;;;10.30;99.90;;;;;;4976417;28;20923;-67
2021/12/29 09:09:58;;;;;;;2.10;1.00;;;10.30;99.90;;;;;;4976935;28;20471;-67
2021/12/29 09:12:25;;;;;;;2.23;0.60;;;10.30;99.90;;;;;;4976223;28;20486;-67
2021/12/29 09:14:51;;;;;;;1.60;0.60;;;10.20;99.90;;;;;;4977230;28;20461;-67
2021/12/29 09:17:19;;;;;;;1.73;1.17;;;10.20;99.90;;;;;;4976397;28;20459;-68
2021/12/29 09:19:47;;;;;;;1.37;1.00;;;10.10;99.90;;;;;;4976494;28;20480;-68
2021/12/29 09:22:14;;;;;;;1.10;1.00;;;10.10;99.90;;;;;;4976701;28;20571;-68
2021/12/29 09:24:43;;;;;;;3.73;0.60;;;10.10;99.90;;;;;;4976778;28;20467;-68
2021/12/29 09:27:10;;;;;;;1.10;0.80;;;10.00;99.90;;;;;;4976825;28;21014;-68
2021/12/29 09:29:37;;;;;;;1.53;1.00;;;10.00;99.90;;;;;;4976665;28;20448;-67
2021/12/29 09:32:04;;;;;;;2.47;0.90;;;10.00;99.90;;;;;;4976397;28;20477;-68
2021/12/29 09:34:33;;;;;;;3.20;1.50;;;10.10;99.90;;;;;;4976118;28;20471;-68
2021/12/29 09:37:00;;;;;;;1.23;0.90;;;10.20;99.90;;;;;;4978289;28;20454;-69
2021/12/29 09:39:27;;;;;;;2.00;1.43;;;10.30;99.90;;;;;;4976342;28;20484;-69
2021/12/29 09:41:55;;;;;;;5.37;1.10;;;10.40;99.90;;;;;;4976176;28;20499;-69
2021/12/29 09:44:22;;;;;;;2.90;1.27;;;10.40;99.90;;;;;;4976072;28;20468;-70
2021/12/29 09:46:49;;;;;;;2.00;0.90;;;10.50;99.90;;;;;;4975872;28;20462;-69
2021/12/29 09:49:16;;;;;;;1.73;1.00;;;10.50;99.90;;;;;;4976381;28;20829;-70
2021/12/29 09:51:44;;;;;;;2.33;1.30;;;10.60;99.90;;;;;;4976307;28;20530;-70
2021/12/29 09:54:11;;;;;;;4.43;1.07;;;10.60;99.90;;;;;;4976200;28;20447;-70
2021/12/29 09:56:38;;;;;;;2.47;1.23;;;10.60;99.90;;;;;;4976740;28;20464;-70
2021/12/29 09:59:05;;;;;;;4.80;1.20;;;10.60;99.90;;;;;;4979586;28;20463;-69
2021/12/29 10:01:31;;;;;;;1.17;1.00;;;10.60;99.90;;;;;;4975857;28;20496;-70
2021/12/29 10:03:58;;;;;;;1.87;1.20;;;10.70;99.90;;;;;;4975760;28;20898;-70
2021/12/29 10:06:25;;;;;;;1.87;1.00;;;10.70;99.90;;;;;;4975457;28;20823;-70
2021/12/29 10:08:53;;;;;;;2.90;1.00;;;10.80;99.90;;;;;;4975605;28;20457;-70
2021/12/29 10:11:27;;;;;;;4.33;1.80;;;10.80;99.90;;;;;;4975461;28;20489;-70
2021/12/29 10:13:54;;;;;;;2.37;1.13;;;10.80;99.90;;;;;;4975940;28;20450;-70
2021/12/29 10:16:25;;;;;;;3.30;0.97;;;10.80;99.90;;;;;;4974916;28;20468;-70
2021/12/29 10:18:58;;;;;;;2.10;1.30;;;10.90;99.90;;;;;;4975274;28;20450;-70
2021/12/29 10:21:26;;;;;;;3.93;1.13;;;10.90;99.90;;;;;;4975658;28;20481;-70
2021/12/29 10:23:57;;;;;;;2.77;1.20;;;10.80;99.90;;;;;;4975578;28;20477;-70
2021/12/29 10:26:26;;;;;;;4.83;1.23;;;10.90;99.90;;;;;;4975272;28;20439;-70
2021/12/29 10:28:56;;;;;;;1.60;1.27;;;11.00;99.90;;;;;;4975308;28;20457;-70
2021/12/29 10:31:25;;;;;;;2.93;1.30;;;11.00;99.90;;;;;;4975369;28;20909;-70
2021/12/29 10:33:54;;;;;;;4.53;1.60;;;11.00;99.90;;;;;;4975524;28;20452;-70
2021/12/29 10:36:24;;;;;;;1.70;1.40;;;11.10;99.90;;;;;;4975336;28;20462;-70
2021/12/29 10:38:59;;;;;;;3.37;1.20;;;11.10;99.90;;;;;;4975152;28;20453;-70
2021/12/29 10:41:26;;;;;;;1.70;1.60;;;11.20;99.90;;;;;;4978015;28;20484;-70
2021/12/29 10:44:00;;;;;;;2.40;1.90;;;11.00;99.90;;;;;;4978674;28;20485;-70
2021/12/29 10:46:31;;;;;;;2.00;1.47;;;11.10;99.90;;;;;;4979463;28;20448;-70
2021/12/29 10:49:00;;;;;;;2.50;1.40;;;11.20;99.90;;;;;;4978748;28;20868;-68
2021/12/29 10:51:30;;;;;;;2.70;1.40;;;11.20;99.90;;;;;;4978433;28;20985;-70
2021/12/29 10:54:10;;;;;;;2.67;1.57;;;11.40;99.90;;;;;;4978630;28;20447;-70
2021/12/29 10:56:38;;;;;;;1.87;1.20;;;11.40;99.90;;;;;;4979194;28;20793;-70
2021/12/29 10:59:18;;;;;;;3.57;1.83;;;11.50;99.90;;;;;;4978697;28;20467;-69
2021/12/29 11:01:45;;;;;;;1.70;1.13;;;11.50;99.90;;;;;;4978282;28;20500;-69
2021/12/29 11:04:13;;;;;;;1.03;0.90;;;11.30;99.90;;;;;;4978175;28;20478;-69
2021/12/29 11:06:43;;;;;;;2.20;1.53;;;11.40;99.90;;;;;;4978546;28;20466;-70
2021/12/29 11:09:13;;;;;;;2.20;1.57;;;11.40;99.90;;;;;;4979333;28;20850;-71
2021/12/29 11:11:42;;;;;;;2.40;1.07;;;11.40;99.90;;;;;;4978300;28;20535;-71
2021/12/29 11:14:11;;;;;;;4.27;1.33;;;11.40;99.90;;;;;;4979038;28;20451;-70
2021/12/29 11:16:39;;;;;;;4.40;1.40;;;11.30;99.90;;;;;;4978459;28;20450;-70
2021/12/29 11:19:06;;;;;;;2.13;1.33;;;11.30;99.90;;;;;;4978327;28;20457;-70
2021/12/29 11:21:37;;;;;;;3.63;1.40;;;11.30;99.90;;;;;;4978618;28;20482;-69
2021/12/29 11:24:20;;;;;;;3.20;1.57;;;11.20;99.90;;;;;;4978450;28;20475;-70
2021/12/29 11:26:49;;;;;;;2.80;1.13;;;11.30;99.90;;;;;;4978967;28;20442;-70
2021/12/29 11:29:18;;;;;;;2.93;1.93;;;11.20;99.90;;;;;;4981251;28;20497;-69
2021/12/29 11:31:48;;;;;;;2.40;1.63;;;11.10;99.90;;;;;;4981399;28;20486;-69
2021/12/29 11:34:18;;;;;;;2.20;1.30;;;11.00;99.90;;;;;;4978815;28;20939;-70
2021/12/29 11:36:46;;;;;;;1.27;1.27;;;11.00;99.90;;;;;;4979392;28;20461;-70
2021/12/29 11:39:13;;;;;;;4.30;1.53;;;11.00;99.90;;;;;;4978967;28;20482;-71
2021/12/29 11:41:42;;;;;;;2.43;1.37;;;11.00;99.90;;;;;;4978889;28;20485;-70
2021/12/29 11:44:10;;;;;;;6.60;2.33;;;11.10;99.90;;;;;;4978581;28;20571;-70
2021/12/29 11:46:37;;;;;;;2.73;1.57;;;11.20;99.90;;;;;;4978432;28;20468;-70
2021/12/29 11:49:06;;;;;;;2.23;1.30;;;11.20;99.90;;;;;;4977815;28;20459;-71
2021/12/29 11:51:41;;;;;;;2.80;1.40;;;11.20;99.90;;;;;;4977080;28;20555;-70
2021/12/29 11:54:14;;;;;;;3.63;1.70;;;11.20;99.90;;;;;;4980146;28;20445;-71
2021/12/29 11:56:43;;;;;;;1.70;1.60;;;11.20;99.90;;;;;;4977179;28;20454;-71
2021/12/29 11:59:10;;;;;;;1.47;1.40;;;11.10;99.90;;;;;;4977919;28;20466;-71
2021/12/29 12:01:38;;;;;;;2.40;1.10;;;11.10;99.90;;;;;;4977630;28;20483;-72
2021/12/29 12:04:09;;;;;;;2.50;1.40;;;11.10;99.90;;;;;;4977331;28;20733;-71
2021/12/29 12:06:40;;;;;;;4.83;1.47;;;11.20;99.90;;;;;;4978206;28;20448;-71
2021/12/29 12:09:10;;;;;;;2.20;1.27;;;11.20;99.90;;;;;;4977577;28;20548;-71
2021/12/29 12:11:38;;;;;;;3.70;1.90;;;11.20;99.90;;;;;;4978682;28;20847;-71
2021/12/29 12:14:19;;;;;;;2.03;1.70;;;11.30;99.90;;;;;;4977589;28;20462;-71
2021/12/29 12:16:51;;;;;;;2.80;1.40;;;11.30;99.90;;;;;;4977766;28;20917;-71
2021/12/29 12:19:20;;;;;;;4.60;1.77;;;11.30;99.90;;;;;;4977348;28;20467;-70
2021/12/29 12:21:47;;;;;;;1.47;1.37;;;11.40;99.90;;;;;;4977142;28;20887;-71
2021/12/29 12:24:17;;;;;;;1.33;1.10;;;11.40;99.90;;;;;;4977098;28;20487;-70
2021/12/29 12:26:56;;;;;;;9.23;1.43;;;11.30;99.90;;;;;;4977188;28;20456;-70
2021/12/29 12:29:25;;;;;;;1.07;1.00;;;11.20;99.90;;;;;;4977620;28;20863;-71
2021/12/29 12:32:13;;;;;;;3.87;1.60;;;11.20;99.90;;;;;;4977263;28;20476;-71
2021/12/29 12:34:55;;;;;;;1.20;1.10;;;11.20;99.90;;;;;;4977361;28;20433;-71
2021/12/29 12:37:29;;;;;;;0.97;0.87;;;11.20;99.90;;;;;;4977132;28;20441;-70
2021/12/29 12:39:58;;;;;;;1.60;1.07;;;11.30;99.90;;;;;;4976697;28;20453;-70
2021/12/29 12:42:26;;;;;;;2.30;1.40;;;11.40;99.90;;;;;;4976862;28;20488;-70
2021/12/29 12:44:54;;;;;;;2.33;1.30;;;11.30;99.90;;;;;;4976577;28;20545;-70
2021/12/29 12:47:20;;;;;;;3.03;1.50;;;11.40;99.90;;;;;;4976186;28;20971;-70
2021/12/29 12:49:51;;;;;;;3.30;1.20;;;11.50;99.90;;;;;;4976895;28;20453;-70
2021/12/29 12:52:20;;;;;;;2.43;1.40;;;11.50;99.90;;;;;;4976224;28;20481;-70
2021/12/29 12:54:51;;;;;;;1.63;1.40;;;11.50;99.90;;;;;;4976616;28;20458;-70
2021/12/29 12:57:34;;;;;;;2.20;1.53;;;11.60;99.90;;;;;;4976717;28;20450;-69
2021/12/29 13:00:16;;;;;;;1.87;1.70;;;11.60;99.90;;;;;;4976944;28;20451;-70
2021/12/29 13:02:46;;;;;;;1.83;1.67;;;11.60;99.90;;;;;;4977251;28;20442;-70
2021/12/29 13:05:17;;;;;;;4.37;1.70;;;11.60;99.90;;;;;;4976391;28;20466;-71
2021/12/29 13:07:51;;;;;;;3.80;1.70;;;11.70;99.90;;;;;;4976137;28;20934;-70
2021/12/29 13:10:25;;;;;;;2.13;1.10;;;11.70;99.90;;;;;;4976539;28;20450;-70
2021/12/29 13:12:57;;;;;;;3.53;1.00;;;11.70;99.90;;;;;;4976795;28;20438;-69
2021/12/29 13:15:30;;;;;;;2.00;1.33;;;11.80;99.90;;;;;;4976692;28;20445;-69
2021/12/29 13:17:57;;;;;;;3.40;1.30;;;11.80;99.90;;;;;;4975984;28;20925;-70
2021/12/29 13:20:24;;;;;;;2.90;1.50;;;11.90;99.90;;;;;;4976271;28;20468;-70
2021/12/29 13:22:51;;;;;;;1.90;1.37;;;11.80;99.90;;;;;;4975866;28;20822;-70
2021/12/29 13:25:19;;;;;;;1.37;1.27;;;11.80;99.90;;;;;;4976378;28;20554;-70
2021/12/29 13:28:01;;;;;;;2.27;1.07;;;11.70;99.90;;;;;;4976546;28;20458;-70
2021/12/29 13:30:32;;;;;;;2.37;1.30;;;11.80;99.90;;;;;;4976095;28;20564;-71
2021/12/29 13:33:00;;;;;;;4.57;4.13;;;11.80;99.90;;;;;;4975744;28;20933;-70
2021/12/29 13:35:30;;;;;;;5.93;1.20;;;11.80;99.90;;;;;;4976144;28;20531;-70
2021/12/29 13:38:00;;;;;;;3.50;1.27;;;11.80;99.90;;;;;;4977544;28;20459;-70
2021/12/29 13:40:32;;;;;;;3.27;1.23;;;11.80;99.90;;;;;;4983593;28;20491;-71
2021/12/29 13:42:59;;;;;;;2.20;1.30;;;11.80;99.90;;;;;;4983533;28;20441;-70
2021/12/29 13:45:28;;;;;;;2.87;1.50;;;11.80;99.90;;;;;;4983787;28;20463;-70
2021/12/29 13:47:57;;;;;;;2.93;1.23;;;11.80;99.90;;;;;;4984572;28;20461;-71
2021/12/29 13:50:24;;;;;;;2.17;1.33;;;11.90;99.90;;;;;;4978355;28;20474;-70
2021/12/29 13:52:58;;;;;;;3.23;1.33;;;11.90;99.90;;;;;;4977154;28;20949;-70
2021/12/29 13:55:26;;;;;;;2.87;1.30;;;12.00;99.90;;;;;;4976283;28;20459;-70
2021/12/29 13:57:54;;;;;;;2.37;1.10;;;12.00;99.90;;;;;;4976473;28;20486;-71
2021/12/29 14:00:21;;;;;;;3.40;1.93;;;11.90;99.90;;;;;;4975440;28;20458;-69
2021/12/29 14:02:48;;;;;;;8.93;1.87;;;11.90;99.90;;;;;;4975670;28;20453;-70
2021/12/29 14:05:16;;;;;;;4.90;1.80;;;11.90;99.90;;;;;;4975701;28;20456;-71
2021/12/29 14:07:43;;;;;;;3.50;1.90;;;11.90;99.90;;;;;;4975807;28;20463;-70
2021/12/29 14:10:11;;;;;;;3.67;1.90;;;11.90;99.90;;;;;;4975778;28;20464;-70
2021/12/29 14:12:38;;;;;;;8.17;2.17;;;11.90;99.90;;;;;;4975181;28;20485;-70
2021/12/29 14:15:08;;;;;;;3.77;2.00;;;11.80;99.90;;;;;;4978055;28;20462;-70
2021/12/29 14:17:39;;;;;;;5.70;2.47;;;11.80;99.90;;;;;;4979571;28;20522;-70
2021/12/29 14:20:09;;;;;;;5.10;1.80;;;11.80;99.90;;;;;;4979513;28;20445;-70
2021/12/29 14:22:38;;;;;;;5.97;2.30;;;11.70;99.90;;;;;;4979541;28;20475;-70
2021/12/29 14:25:08;;;;;;;7.10;2.13;;;11.70;99.90;;;;;;4979213;28;20822;-70
2021/12/29 14:27:37;;;;;;;9.10;3.20;;;11.70;99.90;;;;;;4979689;28;20478;-70
2021/12/29 14:30:14;;;;;;;5.00;2.00;;;11.70;99.90;;;;;;4980028;28;20464;-71
2021/12/29 14:32:54;;;;;;;4.60;2.40;;;11.80;99.90;;;;;;4981004;28;20488;-70
2021/12/29 14:35:22;;;;;;;5.03;2.13;;;11.70;99.90;;;;;;4981154;28;20458;-71
2021/12/29 14:37:50;;;;;;;5.93;3.10;;;11.70;99.90;;;;;;4978918;28;20958;-69
2021/12/29 14:40:23;;;;;;;7.50;2.97;;;11.80;99.90;;;;;;4979037;28;20559;-70
2021/12/29 14:42:50;;;;;;;6.67;2.57;;;11.70;99.90;;;;;;4978647;28;20484;-70
2021/12/29 14:45:18;;;;;;;4.47;2.37;;;11.80;99.90;;;;;;4979296;28;20840;-71
2021/12/29 14:47:50;;;;;;;5.93;2.07;;;11.80;99.90;;;;;;4979040;28;20457;-71
2021/12/29 14:50:21;;;;;;;3.40;1.77;;;11.80;99.90;;;;;;4978568;28;20980;-70
2021/12/29 14:52:49;;;;;;;4.30;2.00;;;11.70;99.90;;;;;;4979011;28;20453;-71
2021/12/29 14:55:18;;;;;;;4.20;2.30;;;11.70;99.90;;;;;;4978932;28;20451;-71
2021/12/29 14:57:45;;;;;;;5.70;1.67;;;11.70;99.90;;;;;;4979583;28;20469;-72
2021/12/29 15:00:15;;;;;;;4.87;1.63;;;11.70;99.90;;;;;;4979360;28;20488;-70
2021/12/29 15:02:43;;;;;;;4.43;2.20;;;11.70;99.90;;;;;;4979121;28;20448;-72
2021/12/29 15:05:14;;;;;;;3.27;1.80;;;11.60;99.90;;;;;;4979269;28;20842;-70
2021/12/29 15:07:43;;;;;;;2.87;1.33;;;11.70;99.90;;;;;;4980124;28;20450;-70
2021/12/29 15:10:16;;;;;;;3.03;1.73;;;11.70;99.90;;;;;;4978918;28;20458;-72
2021/12/29 15:12:49;;;;;;;4.93;2.00;;;11.70;99.90;;;;;;4978880;28;20452;-71
2021/12/29 15:15:19;;;;;;;5.60;1.80;;;11.60;99.90;;;;;;4978338;28;20848;-74
2021/12/29 15:17:54;;;;;;;3.90;2.20;;;11.40;99.90;;;;;;4978925;28;20451;-73
2021/12/29 15:20:21;;;;;;;3.57;1.73;;;11.40;99.90;;;;;;4978322;28;20490;-70
2021/12/29 15:22:48;;;;;;;2.47;1.60;;;11.40;99.90;;;;;;4978452;28;20443;-69
2021/12/29 15:25:19;;;;;;;4.50;2.30;;;11.30;99.90;;;;;;4977750;28;20501;-71
2021/12/29 15:27:50;;;;;;;4.77;1.80;;;11.30;99.90;;;;;;4977199;28;20966;-70
2021/12/29 15:30:17;;;;;;;8.47;2.40;;;11.20;99.90;;;;;;4977638;28;20877;-70
2021/12/29 15:32:44;;;;;;;3.87;1.50;;;11.20;99.90;;;;;;4978278;28;20461;-70
2021/12/29 15:35:11;;;;;;;5.83;2.37;;;11.20;99.90;;;;;;4978685;28;20465;-71
2021/12/29 15:37:38;;;;;;;3.47;1.90;;;11.10;99.90;;;;;;4978915;28;20468;-70
2021/12/29 15:40:06;;;;;;;4.33;2.10;;;11.10;99.90;;;;;;4979173;28;20461;-69
2021/12/29 15:42:34;;;;;;;2.17;1.77;;;11.10;99.90;;;;;;4979064;28;20479;-66
2021/12/29 15:45:02;;;;;;;4.60;1.90;;;11.10;99.90;;;;;;4978971;28;20485;-68
2021/12/29 15:47:29;;;;;;;2.60;1.93;;;11.00;99.90;;;;;;4979190;28;20798;-68
2021/12/29 15:49:56;;;;;;;2.07;1.57;;;11.10;99.90;;;;;;4978138;28;20464;-70
2021/12/29 15:52:23;;;;;;;2.53;1.37;;;11.10;99.90;;;;;;4977496;28;20480;-69
2021/12/29 15:54:50;;;;;;;1.97;1.80;;;11.10;99.90;;;;;;4977891;28;20811;-70
2021/12/29 15:57:16;;;;;;;3.13;1.80;;;11.00;99.90;;;;;;4977550;28;20956;-71
2021/12/29 15:59:47;;;;;;;1.07;1.00;;;11.00;99.90;;;;;;4978538;28;20506;-72
2021/12/29 16:02:16;;;;;;;1.57;1.47;;;11.00;99.90;;;;;;4977638;28;21087;-72
2021/12/29 16:04:43;;;;;;;1.50;1.30;;;10.90;99.90;;;;;;4977798;28;20493;-72
2021/12/29 16:07:10;;;;;;;1.70;1.20;;;11.00;99.90;;;;;;4978666;28;20459;-71
2021/12/29 16:09:39;;;;;;;3.50;1.30;;;10.90;99.90;;;;;;4978206;28;20528;-71
2021/12/29 16:12:07;;;;;;;2.00;1.60;;;10.60;99.90;;;;;;4977861;28;20489;-69
2021/12/29 16:14:34;;;;;;;1.50;1.37;;;10.50;99.90;;;;;;4978399;28;20830;-72
2021/12/29 16:17:02;;;;;;;1.30;1.20;;;10.50;99.90;;;;;;4978164;28;20461;-69
2021/12/29 16:19:29;;;;;;;3.23;1.53;;;10.50;99.90;;;;;;4978197;28;20464;-70
2021/12/29 16:21:56;;;;;;;3.20;1.47;;;10.50;99.90;;;;;;4977529;28;20484;-69
2021/12/29 16:24:23;;;;;;;2.70;1.57;;;10.40;99.90;;;;;;4978154;28;20466;-69
2021/12/29 16:26:50;;;;;;;1.53;1.43;;;10.40;99.90;;;;;;4977685;28;20458;-70
2021/12/29 16:29:17;;;;;;;1.80;1.37;;;10.20;99.90;;;;;;4977471;28;20446;-71
2021/12/29 16:31:44;;;;;;;1.90;1.50;;;10.20;99.90;;;;;;4978080;28;20481;-68
2021/12/29 16:34:13;;;;;;;3.30;1.43;;;10.10;99.90;;;;;;4977106;28;20453;-67
2021/12/29 16:36:39;;;;;;;1.53;1.50;;;10.10;99.90;;;;;;4977052;28;20457;-67
2021/12/29 16:39:06;;;;;;;3.50;1.43;;;10.10;99.90;;;;;;4976776;28;20477;-68
2021/12/29 16:41:33;;;;;;;3.30;1.87;;;10.10;99.90;;;;;;4977076;28;20483;-67
2021/12/29 16:44:01;;;;;;;3.63;2.30;;;10.00;99.90;;;;;;4977782;28;20464;-67
2021/12/29 16:46:28;;;;;;;5.30;1.80;;;10.00;99.90;;;;;;4977780;28;20855;-67
2021/12/29 16:48:54;;;;;;;2.23;1.70;;;10.00;99.90;;;;;;4977456;28;20462;-67
2021/12/29 16:51:23;;;;;;;2.00;1.77;;;10.00;99.90;;;;;;4979288;28;20471;-68
2021/12/29 16:53:51;;;;;;;2.13;1.90;;;10.00;99.90;;;;;;4977160;28;20468;-68
2021/12/29 16:56:19;;;;;;;1.80;1.70;;;9.90;99.90;;;;;;4976923;28;20902;-67
2021/12/29 16:58:46;;;;;;;2.10;2.00;;;9.90;99.90;;;;;;4976956;28;20464;-67
2021/12/29 17:01:13;;;;;;;1.90;1.80;;;9.90;99.90;;;;;;4977327;28;20969;-69
2021/12/29 17:03:39;;;;;;;1.77;1.67;;;9.90;99.90;;;;;;4977994;28;20460;-73
2021/12/29 17:06:06;;;;;;;1.97;1.87;;;9.90;99.90;;;;;;4977451;28;21019;-72
2021/12/29 17:08:34;;;;;;;2.40;2.20;;;9.90;99.90;;;;;;4976948;28;20459;-73
2021/12/29 17:11:02;;;;;;;3.13;2.20;;;9.70;99.90;;;;;;4977405;28;20975;-72
2021/12/29 17:13:29;;;;;;;5.00;2.40;;;9.70;99.90;;;;;;4977199;28;20886;-71
2021/12/29 17:15:56;;;;;;;2.27;2.13;;;9.70;99.90;;;;;;4977073;28;20455;-71
2021/12/29 17:18:23;;;;;;;2.10;2.00;;;9.70;99.90;;;;;;4976896;28;20451;-70
2021/12/29 17:20:50;;;;;;;2.33;2.13;;;9.70;99.90;;;;;;4976880;28;20481;-71
2021/12/29 17:23:18;;;;;;;4.50;1.90;;;9.60;99.90;;;;;;4976458;28;20470;-70
2021/12/29 17:25:46;;;;;;;2.60;2.30;;;9.50;99.90;;;;;;4976845;28;20534;-70
2021/12/29 17:28:13;;;;;;;2.60;2.40;;;9.60;99.90;;;;;;4977061;28;20494;-72
2021/12/29 17:30:40;;;;;;;3.37;2.40;;;9.50;99.90;;;;;;4976663;28;20480;-72
2021/12/29 17:33:07;;;;;;;4.00;2.63;;;9.60;99.90;;;;;;4976465;28;20966;-72
2021/12/29 17:35:33;;;;;;;2.57;2.20;;;9.60;99.90;;;;;;4976221;28;20455;-70
2021/12/29 17:38:00;;;;;;;3.17;2.87;;;9.60;99.90;;;;;;4976053;28;20459;-70
2021/12/29 17:40:27;;;;;;;2.57;2.37;;;9.60;99.90;;;;;;4975981;28;20452;-67
2021/12/29 17:42:55;;;;;;;2.80;2.60;;;9.50;99.90;;;;;;4976682;28;20455;-69
2021/12/29 17:45:23;;;;;;;3.10;2.90;;;9.50;99.90;;;;;;4976011;28;20626;-71
2021/12/29 17:47:51;;;;;;;6.60;3.50;;;9.50;99.90;;;;;;4976375;28;20462;-72
2021/12/29 17:50:20;;;;;;;4.27;3.87;;;9.50;99.90;;;;;;4975188;28;20965;-70
2021/12/29 17:52:48;;;;;;;3.67;3.37;;;9.40;99.90;;;;;;4976151;28;20451;-66
2021/12/29 17:55:15;;;;;;;5.57;3.63;;;9.50;99.90;;;;;;4976427;28;20452;-66
2021/12/29 17:57:41;;;;;;;4.07;3.37;;;9.70;99.90;;;;;;4975669;28;20459;-70
2021/12/29 18:00:15;;;;;;;4.70;3.53;;;9.70;99.90;;;;;;4975601;28;20466;-71